Terminal Aerodrome Forecast
Issued by NWS Sioux Falls, SD

Home | Current Version | Previous Version | Text Only | Print | Product List | Glossary On
Versions: 1 2 3 4 5 6 7 8 9 10 11 12 13 14
000
FTUS43 KFSD 142320
TAFSUX
TAF
KSUX 142320Z 1500/1524 20008KT P6SM SCT200 WS015/26045KT
     FM150200 21006KT P6SM SCT200
     FM150500 VRB03KT P6SM SCT200
     FM150700 VRB03KT 3SM BR SCT200
     FM151000 VRB04KT P6SM OVC120
     FM151600 34008KT P6SM SCT080
     FM152000 34014G21KT P6SM OVC020=

USA.gov is the U.S. government's official web portal to all federal, state and local government web resources and services.